createdAt,value
2019-03-21T00:00:57.061Z,8.67
2019-03-21T00:03:28.306Z,8.66
2019-03-21T00:05:59.359Z,8.65
2019-03-21T00:08:30.671Z,8.65
2019-03-21T00:11:05.005Z,8.66
2019-03-21T00:13:36.428Z,8.64
2019-03-21T00:16:10.561Z,8.61
2019-03-21T00:18:41.872Z,8.61
2019-03-21T00:21:13.056Z,8.59
2019-03-21T00:23:44.158Z,8.60
2019-03-21T00:26:15.061Z,8.61
2019-03-21T00:28:46.675Z,8.62
2019-03-21T00:31:17.903Z,8.62
2019-03-21T00:33:49.071Z,8.63
2019-03-21T00:36:20.663Z,8.65
2019-03-21T00:38:51.983Z,8.68
2019-03-21T00:41:23.150Z,8.68
2019-03-21T00:43:54.085Z,8.66
2019-03-21T00:46:25.206Z,8.65
2019-03-21T00:48:56.114Z,8.64
2019-03-21T00:51:27.267Z,8.63
2019-03-21T00:53:58.362Z,8.65
2019-03-21T00:56:29.492Z,8.69
2019-03-21T00:59:00.867Z,8.69
2019-03-21T01:01:32.189Z,8.64
2019-03-21T01:04:03.706Z,8.67
2019-03-21T01:06:35.133Z,8.61
2019-03-21T01:09:09.226Z,8.62
2019-03-21T01:11:40.291Z,8.64
2019-03-21T01:14:11.541Z,8.62
2019-03-21T01:16:42.729Z,8.63
2019-03-21T01:19:14.847Z,8.63
2019-03-21T01:21:45.823Z,8.61
2019-03-21T01:24:16.921Z,8.63
2019-03-21T01:26:48.029Z,8.62
2019-03-21T01:29:19.050Z,8.67
2019-03-21T01:31:50.240Z,8.68
2019-03-21T01:34:21.096Z,8.65
2019-03-21T01:36:52.286Z,8.63
2019-03-21T01:39:23.581Z,8.62
2019-03-21T01:41:54.823Z,8.59
2019-03-21T01:44:25.530Z,8.63
2019-03-21T01:46:56.746Z,8.64
2019-03-21T01:49:28.448Z,8.64
2019-03-21T01:51:59.381Z,8.62
2019-03-21T01:54:30.491Z,8.66
2019-03-21T01:57:01.592Z,8.64
2019-03-21T01:59:44.951Z,8.61
2019-03-21T02:02:16.087Z,8.63
2019-03-21T02:04:46.949Z,8.61
2019-03-21T02:07:18.146Z,8.65
2019-03-21T02:09:48.870Z,8.67
2019-03-21T02:12:19.857Z,8.63
2019-03-21T02:14:52.327Z,8.62
2019-03-21T02:17:23.538Z,8.66
2019-03-21T02:19:54.916Z,8.67
2019-03-21T02:22:26.052Z,8.67
2019-03-21T02:24:57.080Z,8.67
2019-03-21T02:27:29.525Z,8.64
2019-03-21T02:30:00.669Z,8.65
2019-03-21T02:32:33.308Z,8.63
2019-03-21T02:35:06.318Z,8.64
2019-03-21T02:37:37.308Z,8.66
2019-03-21T02:40:11.748Z,8.62
2019-03-21T02:42:43.024Z,8.66
2019-03-21T02:45:16.160Z,8.70
2019-03-21T02:47:47.177Z,8.72
2019-03-21T02:50:21.485Z,8.76
2019-03-21T02:52:52.719Z,8.74
2019-03-21T02:55:24.842Z,8.74
2019-03-21T02:57:56.089Z,8.75
2019-03-21T03:00:30.504Z,8.78
2019-03-21T03:03:01.989Z,8.79
2019-03-21T03:05:34.349Z,8.83
2019-03-21T03:08:06.998Z,8.84
2019-03-21T03:10:40.648Z,8.86
2019-03-21T03:13:11.592Z,8.90
2019-03-21T03:15:43.336Z,8.92
2019-03-21T03:18:17.591Z,8.91
2019-03-21T03:20:48.904Z,8.89
2019-03-21T03:23:20.383Z,8.88
2019-03-21T03:25:51.653Z,8.86
2019-03-21T03:28:26.276Z,8.87
2019-03-21T03:30:59.098Z,8.82
2019-03-21T03:33:29.905Z,8.86
2019-03-21T03:36:01.299Z,8.83
2019-03-21T03:38:33.406Z,8.86
2019-03-21T03:41:07.906Z,8.84
2019-03-21T03:43:39.209Z,8.89
2019-03-21T03:46:10.148Z,8.84
2019-03-21T03:48:41.380Z,8.85
2019-03-21T03:51:12.886Z,8.82
2019-03-21T03:53:44.433Z,8.81
2019-03-21T03:56:15.688Z,8.79
2019-03-21T03:58:50.369Z,8.77
2019-03-21T04:01:21.514Z,8.80
2019-03-21T04:03:52.846Z,8.80
2019-03-21T04:06:24.056Z,8.81
2019-03-21T04:08:55.301Z,8.84
2019-03-21T04:11:26.895Z,8.86
2019-03-21T04:13:57.904Z,8.86
2019-03-21T04:16:29.086Z,8.87
2019-03-21T04:19:00.426Z,8.87
2019-03-21T04:21:32.108Z,8.84
2019-03-21T04:24:03.021Z,8.86
2019-03-21T04:26:36.551Z,8.90
2019-03-21T04:29:07.869Z,8.93
2019-03-21T04:31:39.168Z,8.91
2019-03-21T04:34:11.236Z,8.90
2019-03-21T04:36:42.234Z,8.88
2019-03-21T04:39:13.044Z,8.92
2019-03-21T04:41:47.008Z,8.89
2019-03-21T04:44:18.570Z,8.87
2019-03-21T04:46:49.557Z,8.88
2019-03-21T04:49:20.511Z,8.89
2019-03-21T04:51:51.758Z,8.92
2019-03-21T04:54:22.528Z,8.93
2019-03-21T04:56:54.509Z,8.91
2019-03-21T04:59:25.622Z,8.92
2019-03-21T05:01:56.988Z,8.93
2019-03-21T05:04:28.007Z,8.93
2019-03-21T05:06:59.209Z,8.94
2019-03-21T05:09:30.461Z,8.91
2019-03-21T05:12:01.417Z,8.88
2019-03-21T05:14:32.985Z,8.88
2019-03-21T05:17:04.447Z,8.90
2019-03-21T05:19:35.533Z,8.92
2019-03-21T05:22:06.512Z,8.89
2019-03-21T05:24:37.924Z,8.87
2019-03-21T05:27:09.230Z,8.88
2019-03-21T05:29:40.474Z,8.93
2019-03-21T05:32:11.630Z,8.94
2019-03-21T05:34:43.029Z,8.93
2019-03-21T05:37:14.811Z,8.92
2019-03-21T05:39:48.896Z,8.94
2019-03-21T05:42:20.128Z,9.02
2019-03-21T05:44:51.185Z,9.01
2019-03-21T05:47:22.097Z,9.01
2019-03-21T05:49:54.344Z,9.10
2019-03-21T05:52:25.414Z,9.16
2019-03-21T05:54:57.727Z,9.19
2019-03-21T05:57:32.769Z,9.19
2019-03-21T06:00:08.608Z,9.19
2019-03-21T06:10:05.429Z,9.23
2019-03-21T06:12:39.512Z,9.23
2019-03-21T06:15:14.582Z,9.24
2019-03-21T06:35:26.969Z,9.50
2019-03-21T06:37:58.494Z,9.61
2019-03-21T06:40:29.764Z,9.65
2019-03-21T06:43:00.643Z,9.73
2019-03-21T06:45:31.799Z,9.68
2019-03-21T06:48:02.727Z,9.68
2019-03-21T06:50:33.854Z,9.68
2019-03-21T06:53:04.631Z,9.77
2019-03-21T06:55:35.494Z,9.89
2019-03-21T06:58:06.566Z,9.88
2019-03-21T07:00:37.439Z,9.96
2019-03-21T07:03:08.627Z,10.07
2019-03-21T07:05:39.608Z,10.11
2019-03-21T07:08:10.705Z,10.22
2019-03-21T07:10:42.227Z,10.33
2019-03-21T07:13:13.719Z,10.41
2019-03-21T07:15:45.181Z,10.48
2019-03-21T07:18:16.357Z,10.53
2019-03-21T07:20:48.713Z,10.52
2019-03-21T07:23:20.121Z,10.49
2019-03-21T07:25:51.317Z,10.53
2019-03-21T07:28:22.494Z,10.53
2019-03-21T07:30:53.483Z,10.54
2019-03-21T07:33:24.964Z,10.57
2019-03-21T07:35:56.124Z,10.52
2019-03-21T07:38:27.062Z,10.55
2019-03-21T07:40:58.739Z,10.58
2019-03-21T07:43:29.884Z,10.68
2019-03-21T07:46:01.374Z,10.72
2019-03-21T07:48:32.278Z,10.77
2019-03-21T07:51:04.072Z,10.65
2019-03-21T07:53:35.157Z,10.69
2019-03-21T07:56:06.110Z,10.82
2019-03-21T07:58:38.327Z,10.92
2019-03-21T08:01:09.719Z,11.03
2019-03-21T08:03:40.953Z,11.05
2019-03-21T08:06:12.182Z,10.97
2019-03-21T08:08:43.793Z,10.99
2019-03-21T08:11:15.366Z,11.04
2019-03-21T08:13:47.054Z,11.04
2019-03-21T08:16:18.182Z,11.13
2019-03-21T08:18:50.454Z,11.07
2019-03-21T08:21:22.315Z,11.03
2019-03-21T08:23:53.956Z,11.05
2019-03-21T08:26:25.138Z,10.98
2019-03-21T08:28:57.610Z,11.02
2019-03-21T08:31:29.392Z,11.16
2019-03-21T08:34:00.657Z,11.21
2019-03-21T08:36:32.217Z,11.36
2019-03-21T08:39:04.822Z,11.48
2019-03-21T08:41:36.380Z,11.65
2019-03-21T08:44:08.136Z,11.66
2019-03-21T08:46:42.197Z,11.68
2019-03-21T08:49:16.595Z,11.82
2019-03-21T08:51:48.361Z,11.92
2019-03-21T08:54:19.958Z,11.94
2019-03-21T08:56:51.137Z,11.97
2019-03-21T08:59:22.335Z,12.09
2019-03-21T09:01:56.356Z,12.18
2019-03-21T09:04:28.234Z,12.26
2019-03-21T09:06:59.902Z,12.10
2019-03-21T09:09:31.238Z,12.15
2019-03-21T09:12:03.921Z,12.17
2019-03-21T09:14:36.570Z,12.05
2019-03-21T09:17:07.611Z,12.17
2019-03-21T09:19:40.319Z,12.16
2019-03-21T09:22:11.372Z,12.41
2019-03-21T09:24:42.443Z,12.54
2019-03-21T09:27:13.474Z,12.55
2019-03-21T09:29:53.470Z,12.53
2019-03-21T09:32:20.064Z,12.43
2019-03-21T09:34:51.035Z,12.47
2019-03-21T09:37:22.567Z,12.63
2019-03-21T09:39:53.934Z,12.85
2019-03-21T09:42:25.143Z,12.83
2019-03-21T09:44:57.094Z,12.74
2019-03-21T09:47:28.005Z,12.79
2019-03-21T09:50:00.047Z,12.77
2019-03-21T09:52:31.646Z,12.76
2019-03-21T09:55:07.156Z,12.68
2019-03-21T09:57:39.077Z,12.77
2019-03-21T10:00:11.237Z,12.58
2019-03-21T10:02:42.396Z,12.59
2019-03-21T10:05:13.683Z,12.66
2019-03-21T10:07:44.628Z,12.70
2019-03-21T10:10:19.122Z,12.74
2019-03-21T10:12:50.935Z,12.72
2019-03-21T10:15:22.482Z,13.10
2019-03-21T10:17:54.698Z,13.47
2019-03-21T10:20:26.097Z,13.45
2019-03-21T10:22:57.458Z,13.34
2019-03-21T10:25:29.976Z,13.35
2019-03-21T10:28:01.938Z,13.29
2019-03-21T10:30:36.022Z,13.24
2019-03-21T10:33:10.192Z,13.21
2019-03-21T10:35:41.768Z,13.24
2019-03-21T10:38:13.618Z,13.24
2019-03-21T10:40:44.815Z,13.17
2019-03-21T10:43:16.206Z,13.13
2019-03-21T10:45:47.499Z,13.10
2019-03-21T10:48:18.791Z,13.10
2019-03-21T10:50:50.161Z,13.21
2019-03-21T10:53:25.801Z,13.23
2019-03-21T10:55:57.676Z,13.32
2019-03-21T10:58:29.682Z,13.33
2019-03-21T11:01:08.883Z,13.36
2019-03-21T11:03:40.376Z,13.48
2019-03-21T11:06:11.733Z,13.56
2019-03-21T11:08:48.302Z,13.74
2019-03-21T11:11:19.401Z,13.96
2019-03-21T11:13:54.874Z,14.01
2019-03-21T11:16:26.288Z,14.08
2019-03-21T11:18:57.656Z,14.34
2019-03-21T11:21:29.058Z,14.78
2019-03-21T11:24:00.727Z,14.97
2019-03-21T11:26:33.266Z,14.87
2019-03-21T11:29:04.639Z,15.09
2019-03-21T11:31:35.809Z,15.16
2019-03-21T11:34:07.728Z,14.52
2019-03-21T11:36:40.168Z,14.47
2019-03-21T11:39:11.677Z,14.38
2019-03-21T11:41:42.685Z,14.26
2019-03-21T11:44:13.666Z,14.31
2019-03-21T11:46:44.801Z,14.52
2019-03-21T11:49:17.266Z,14.65
2019-03-21T11:51:48.189Z,14.61
2019-03-21T11:54:19.361Z,14.41
2019-03-21T11:56:50.561Z,14.31
2019-03-21T11:59:22.249Z,14.20
2019-03-21T12:01:53.546Z,14.03
2019-03-21T12:04:24.603Z,14.07
2019-03-21T12:06:56.465Z,13.97
2019-03-21T12:09:30.058Z,13.95
2019-03-21T12:12:01.310Z,13.94
2019-03-21T12:14:33.034Z,14.06
2019-03-21T12:17:04.305Z,14.14
2019-03-21T12:19:35.498Z,14.24
2019-03-21T12:22:06.738Z,14.49
2019-03-21T12:24:38.618Z,14.59
2019-03-21T12:27:10.244Z,14.32
2019-03-21T12:29:41.277Z,14.02
2019-03-21T12:32:12.597Z,13.91
2019-03-21T12:34:43.941Z,13.98
2019-03-21T12:37:15.518Z,14.03
2019-03-21T12:39:47.306Z,14.03
2019-03-21T12:42:18.791Z,13.80
2019-03-21T12:44:50.703Z,13.82
2019-03-21T12:47:30.829Z,13.90
2019-03-21T12:49:55.489Z,13.90
2019-03-21T12:52:27.077Z,13.91
2019-03-21T12:54:57.791Z,13.82
2019-03-21T12:57:28.960Z,13.65
2019-03-21T13:00:02.952Z,13.59
2019-03-21T13:02:36.320Z,13.56
2019-03-21T13:05:08.372Z,13.38
2019-03-21T13:08:00.969Z,13.48
2019-03-21T13:11:04.653Z,13.49
2019-03-21T13:23:35.582Z,13.49
2019-03-21T13:26:17.097Z,13.45
2019-03-21T13:28:53.721Z,13.44
2019-03-21T13:31:48.528Z,13.52
2019-03-21T13:34:12.878Z,13.52
2019-03-21T13:36:48.796Z,13.33
2019-03-21T13:39:33.585Z,13.31
2019-03-21T13:42:16.591Z,13.20
2019-03-21T13:44:58.597Z,13.14
2019-03-21T13:53:45.457Z,13.17
2019-03-21T13:56:17.050Z,13.24
2019-03-21T13:58:53.212Z,13.21
2019-03-21T14:01:35.179Z,13.09
2019-03-21T14:04:12.610Z,13.06
2019-03-21T14:06:45.843Z,13.05
2019-03-21T14:09:31.316Z,13.15
2019-03-21T14:16:22.737Z,13.12
2019-03-21T14:19:03.267Z,13.06
2019-03-21T14:21:38.518Z,13.09
2019-03-21T14:24:11.441Z,13.12
2019-03-21T14:26:43.554Z,13.09
2019-03-21T14:29:14.546Z,12.99
2019-03-21T14:31:45.794Z,12.94
2019-03-21T14:34:17.120Z,13.04
2019-03-21T14:36:48.555Z,12.94
2019-03-21T14:39:19.761Z,12.95
2019-03-21T14:41:51.196Z,12.90
2019-03-21T14:44:23.011Z,12.88
2019-03-21T14:46:54.571Z,12.95
2019-03-21T14:49:26.389Z,12.93
2019-03-21T14:51:58.333Z,12.91
2019-03-21T14:54:33.734Z,12.84
2019-03-21T14:57:07.455Z,12.87
2019-03-21T14:59:39.502Z,12.89
2019-03-21T15:02:14.230Z,12.96
2019-03-21T15:04:46.900Z,12.90
2019-03-21T15:07:20.209Z,12.86
2019-03-21T15:09:53.710Z,12.91
2019-03-21T15:12:25.876Z,12.99
2019-03-21T15:14:57.393Z,12.93
2019-03-21T15:24:15.904Z,12.91
2019-03-21T16:16:22.315Z,12.39
2019-03-21T16:18:56.478Z,12.41
2019-03-21T16:21:38.961Z,12.41
2019-03-21T16:37:24.213Z,12.19
2019-03-21T16:46:49.891Z,12.08
2019-03-21T16:49:30.795Z,12.03
2019-03-21T16:52:08.835Z,12.01
2019-03-21T16:54:39.769Z,11.94
2019-03-21T16:57:28.710Z,11.93
2019-03-21T17:00:01.861Z,11.93
2019-03-21T17:02:45.378Z,11.90
2019-03-21T17:05:25.635Z,11.86
2019-03-21T17:08:12.797Z,11.92
2019-03-21T17:10:52.660Z,11.85
2019-03-21T17:13:33.405Z,11.86
2019-03-21T17:16:05.786Z,11.81
2019-03-21T17:47:51.744Z,11.81
2019-03-21T17:50:24.194Z,11.72
2019-03-21T17:56:00.357Z,11.75
2019-03-21T17:58:31.775Z,11.75
2019-03-21T18:01:04.542Z,11.73
2019-03-21T18:03:38.798Z,11.76
2019-03-21T18:06:11.600Z,11.80
2019-03-21T18:08:42.351Z,11.78
2019-03-21T18:11:17.441Z,11.76
2019-03-21T18:14:04.431Z,11.83
2019-03-21T18:16:50.908Z,11.89
2019-03-21T18:19:30.650Z,11.89
2019-03-21T18:22:02.727Z,11.84
2019-03-21T18:24:33.650Z,11.86
2019-03-21T18:27:04.356Z,11.93
2019-03-21T18:32:38.933Z,11.77
2019-03-21T18:35:11.265Z,11.80
2019-03-21T18:44:39.661Z,11.87
2019-03-21T18:47:53.311Z,11.81
2019-03-21T18:47:55.897Z,11.95
2019-03-21T18:50:22.662Z,11.96
2019-03-21T18:52:56.450Z,11.85
2019-03-21T18:55:52.499Z,11.77
2019-03-21T18:58:56.447Z,11.70
2019-03-21T19:01:19.427Z,11.66
2019-03-21T19:03:54.657Z,11.68
2019-03-21T19:06:53.691Z,11.59
2019-03-21T19:09:46.769Z,11.55
2019-03-21T19:12:33.171Z,11.53
2019-03-21T19:15:21.853Z,11.50
2019-03-21T19:17:54.983Z,11.50
2019-03-21T19:20:26.166Z,11.47
2019-03-21T19:22:57.270Z,11.52
2019-03-21T19:28:15.709Z,11.49
2019-03-21T19:30:52.440Z,11.53
2019-03-21T19:33:26.549Z,11.53
2019-03-21T19:35:58.762Z,11.49
2019-03-21T19:38:31.466Z,11.43
2019-03-21T19:41:03.035Z,11.36
2019-03-21T19:43:34.179Z,11.37
2019-03-21T19:46:06.903Z,11.34
2019-03-21T19:48:45.711Z,11.35
2019-03-21T19:51:10.999Z,11.30
2019-03-21T19:53:42.319Z,11.34
2019-03-21T19:56:13.902Z,11.35
2019-03-21T19:58:45.776Z,11.32
2019-03-21T20:01:17.641Z,11.38
2019-03-21T20:03:48.763Z,11.37
2019-03-21T20:06:20.061Z,11.33
2019-03-21T20:08:52.101Z,11.30
2019-03-21T20:11:23.504Z,11.31
2019-03-21T20:13:58.054Z,11.26
2019-03-21T20:16:29.004Z,11.29
2019-03-21T20:19:00.138Z,11.22
2019-03-21T20:21:32.362Z,11.22
2019-03-21T20:24:04.690Z,11.28
2019-03-21T20:26:40.019Z,11.21
2019-03-21T20:29:11.500Z,11.26
2019-03-21T20:31:43.485Z,11.18
2019-03-21T20:34:15.190Z,11.13
2019-03-21T20:36:47.363Z,11.14
2019-03-21T20:39:18.391Z,11.13
2019-03-21T20:41:49.440Z,11.15
2019-03-21T20:44:20.827Z,11.15
2019-03-21T20:46:51.962Z,11.16
2019-03-21T20:49:23.021Z,11.13
2019-03-21T20:51:56.187Z,11.07
2019-03-21T20:54:30.388Z,11.05
2019-03-21T20:57:01.962Z,11.07
2019-03-21T20:59:33.151Z,11.13
2019-03-21T21:02:05.068Z,11.17
2019-03-21T21:04:35.955Z,11.15
2019-03-21T21:07:07.486Z,11.17
2019-03-21T21:09:39.027Z,11.12
2019-03-21T21:12:10.310Z,11.08
2019-03-21T21:14:41.516Z,11.05
2019-03-21T21:17:12.674Z,11.02
2019-03-21T21:19:43.887Z,11.01
2019-03-21T21:22:14.905Z,11.00
2019-03-21T21:24:45.624Z,10.98
2019-03-21T21:27:17.177Z,10.93
2019-03-21T21:29:48.757Z,10.94
2019-03-21T21:32:20.412Z,10.99
2019-03-21T21:34:54.757Z,11.02
2019-03-21T21:37:26.198Z,10.97
2019-03-21T21:39:57.573Z,10.96
2019-03-21T21:42:28.652Z,10.95
2019-03-21T21:44:59.640Z,10.98
2019-03-21T21:47:31.124Z,10.92
2019-03-21T21:50:02.697Z,10.93
2019-03-21T21:52:41.867Z,10.92
2019-03-21T21:55:08.604Z,10.95
2019-03-21T21:57:39.438Z,10.93
2019-03-21T22:00:13.767Z,10.83
2019-03-21T22:02:45.884Z,10.78
2019-03-21T22:05:17.314Z,10.80
2019-03-21T22:07:48.294Z,10.77
2019-03-21T22:10:20.347Z,10.75
2019-03-21T22:12:51.633Z,10.71
2019-03-21T22:15:23.068Z,10.69
2019-03-21T22:17:54.383Z,10.69
2019-03-21T22:20:25.867Z,10.69
2019-03-21T22:22:57.124Z,10.72
2019-03-21T22:25:28.081Z,10.70
2019-03-21T22:27:59.037Z,10.61
2019-03-21T22:30:30.446Z,10.61
2019-03-21T22:33:01.860Z,10.56
2019-03-21T22:35:32.863Z,10.53
2019-03-21T22:38:03.869Z,10.51
2019-03-21T22:40:35.332Z,10.53
2019-03-21T22:43:06.395Z,10.53
2019-03-21T22:45:37.666Z,10.49
2019-03-21T22:48:09.345Z,10.48
2019-03-21T22:50:41.083Z,10.54
2019-03-21T22:53:12.283Z,10.52
2019-03-21T22:55:43.330Z,10.48
2019-03-21T22:58:14.386Z,10.50
2019-03-21T23:00:47.300Z,10.53
2019-03-21T23:03:18.840Z,10.53
2019-03-21T23:05:50.092Z,10.52
2019-03-21T23:08:21.608Z,10.56
2019-03-21T23:10:53.420Z,10.56
2019-03-21T23:13:25.189Z,10.57
2019-03-21T23:15:58.496Z,10.59
2019-03-21T23:18:30.104Z,10.51
2019-03-21T23:21:01.435Z,10.51
2019-03-21T23:23:32.647Z,10.47
2019-03-21T23:26:03.894Z,10.45
2019-03-21T23:28:35.171Z,10.39
2019-03-21T23:31:06.694Z,10.36
2019-03-21T23:33:37.747Z,10.42
2019-03-21T23:36:08.899Z,10.37
2019-03-21T23:38:40.687Z,10.25
2019-03-21T23:41:12.262Z,10.21
2019-03-21T23:43:43.509Z,10.20
2019-03-21T23:46:15.015Z,10.20
2019-03-21T23:48:46.297Z,10.17
2019-03-21T23:51:17.423Z,10.12
2019-03-21T23:54:18.554Z,10.06
2019-03-21T23:56:49.464Z,10.05
2019-03-21T23:59:20.877Z,9.92
